x

South Santa Rosa Is. Ca (46069) Wave Buoy

12:50am - Sat 25th Feb 2017 All times are PST. -8 hours from GMT.

  • Sig Wave height 6.2ft
  • Swell Direction
  • Peak Period 17s
  • Average Period 6s
  • Wind
    20mph, 25mph gusts
  • Sea Temp 56°f
  • Air Temp 53°f
  • Sea Pressure 1021.1mb
  • South Santa Rosa Is. Ca
  • South Santa Rosa Is. Ca

More Historic Weather Station data

Upgrade to MSW Pro to gain access to the past 30 days of data for over 8000 Wavebouys and Weather Stations around the globe.

Join Pro

Comparision Forecast

View Surf forecast
   
Sat 02/25 12:50am 6ft 17s 6s 20 25 mph 1021.1mb 56f 53f
Fri 02/24 11:50pm 6ft 16s 6s 22 25 mph 1021.5mb 56f 53f
10:50pm 6ft 16s 6s 22 27 mph 1021.6mb 56f 53f
9:50pm 6ft 17s 6s 22 27 mph 1021.9mb 56f 53f
8:50pm 6.5ft 8s 6s 22 27 mph 1021.6mb 56f 53f
7:50pm 7ft 6s 6s 22 29 mph 1021.1mb 56f 53f
6:50pm 7ft 8s 6s 25 27 mph 1021mb 56f 53f
5:50pm 7ft 8s 6s 25 29 mph 1021mb 56f 53f
4:50pm 7ft 7s 6s 25 29 mph 1021.1mb 56f 53f
3:50pm 6.5ft 8s 6s 25 29 mph 1021.2mb 56f 53f
2:50pm 6.5ft 8s 6s 22 27 mph 1021.6mb 56f 53f
1:50pm 7ft 8s 6s 22 27 mph 1021.9mb 56f 52f
12:50pm 7.5ft 8s 6s 22 27 mph 1022.3mb 56f 52f
11:50am 7ft 8s 6s 25 29 mph 1022.5mb 56f 52f
10:50am 7ft 8s 6s 22 29 mph 1022.8mb 56f 52f
9:50am 7ft 8s 6s 22 27 mph 1022.6mb 56f 52f
8:50am 8ft 9s 6s 25 29 mph 1022.4mb 56f 52f
7:50am 7ft 9s 6s 25 31 mph 1021.6mb 56f 52f
6:50am 7ft 9s 6s 22 27 mph 1021.1mb 56f 52f
5:50am 7.5ft 9s 6s 22 25 mph 1020.9mb 56f 51f
4:50am 7.5ft 9s 6s 22 25 mph 1020.4mb 55f 52f
3:50am 8ft 8s 6s 25 29 mph 1020mb 55f 52f
2:50am 7.5ft 10s 6s 25 29 mph 1020.4mb 56f 52f
1:50am 9ft 8s 7s 22 29 mph 1021.1mb 56f 52f
12:50am 9.5ft 8s 6s 25 29 mph 1021.1mb 56f 53f
Thu 02/23 11:50pm 10.5ft 8s 7s 27 34 mph 1020.6mb 56f 53f
10:50pm 9ft 8s 6s 29 34 mph 1020.6mb 56f 52f
9:50pm 10ft 8s 6s 29 36 mph 1020.3mb 56f 52f
8:50pm 10.5ft 8s 6s 29 36 mph 1020.3mb 56f 52f
7:50pm 11ft 8s 6s 31 36 mph 1020mb 56f 52f
6:50pm 10.5ft 8s 6s 31 36 mph 1019.7mb 56f 52f
5:50pm 9ft 9s 6s 29 36 mph 1019.5mb 56f 52f
4:50pm 10ft 8s 7s 29 34 mph 1019.4mb 56f 52f
3:50pm 9.5ft 8s 6s 29 36 mph 1019.5mb 56f 52f
2:50pm 10ft 8s 6s 29 34 mph 1019.7mb 56f 52f
1:50pm 9ft 8s 6s 29 34 mph 1020.1mb 56f 52f
12:50pm 9.5ft 8s 6s 29 36 mph 1020.4mb 56f 52f
11:50am 9.5ft 8s 7s 29 38 mph 1020.9mb 56f 52f
10:50am 9ft 8s 7s 27 34 mph 1021.5mb 56f 52f
9:50am 9.5ft 11s 7s 22 29 mph 1021.6mb 56f 51f
8:50am 10.5ft 8s 7s 25 29 mph 1021.6mb 56f 51f
7:50am 10ft 11s 7s 22 29 mph 1021.1mb 56f 51f
6:50am 10ft 8s 7s 27 34 mph 1020.7mb 56f 51f
5:50am 11ft 8s 7s 27 31 mph 1020.3mb 56f 51f
4:50am 11ft 13s 7s 27 34 mph 1019.9mb 56f 51f
3:50am 12ft 13s 8s 31 40 mph 1019.1mb 56f 52f
2:50am 12ft 8s 7s 31 36 mph 1019.4mb 56f 53f
1:50am 12ft 13s 7s 31 38 mph 1019.9mb 56f 53f
12:50am 13ft 14s 7s 31 40 mph 1020.4mb 56f 53f
Wed 02/22 11:50pm 12ft 14s 7s 31 38 mph 1020.6mb 56f 53f
10:50pm 12ft 9s 7s 31 38 mph 1020.7mb 56f 53f
9:50pm 12.5ft 13s 7s 29 38 mph 1021mb 56f 53f
8:50pm 11ft 7s 7s 27 34 mph 1020.8mb 56f 54f
7:50pm 11.5ft 15s 7s 29 34 mph 1020.3mb 57f 54f
6:50pm 11.5ft 14s 7s 29 36 mph 1020mb 57f 54f
5:50pm 11ft 15s 7s 31 38 mph 1019.9mb 57f 54f
4:50pm 11.5ft 15s 7s 29 36 mph 1019.8mb 57f 55f
3:50pm 10.5ft 14s 7s 29 34 mph 1019.8mb 57f 55f
2:50pm 11.5ft 15s 8s 29 36 mph 1019.9mb 57f 55f
1:50pm 10.5ft 15s 7s 27 34 mph 1020.2mb 57f 55f
12:50pm 10.5ft 15s 8s 27 31 mph 1020.6mb 57f 55f
11:50am 10ft 15s 8s 27 31 mph 1021.2mb 57f 55f
10:50am 11ft 12s 9s 22 27 mph 1021.8mb 57f 55f
9:50am 9ft 15s 8s 20 25 mph 1022.1mb 56f 55f
8:50am 10ft 15s 9s 20 25 mph 1022.1mb 56f 55f
7:50am 9ft 15s 8s 20 25 mph 1021.9mb 56f 55f
6:50am 10ft 16s 9s 20 25 mph 1021.9mb 56f 55f
5:50am 9ft 16s 8s 18 22 mph 1021.6mb 56f 55f
4:50am 9ft 16s 8s 20 22 mph 1021.7mb 56f 55f
2:50am 8ft 12s 8s 18 20 mph 1022.3mb 56f 56f
1:50am 8ft 13s 9s 16 20 mph 1022.8mb 56f 56f
12:50am 8ft 11s 9s 13 16 mph 1023.7mb 56f 56f
Tue 02/21 11:50pm 7.5ft 13s 9s 11 13 mph 1024.1mb 56f 56f
10:50pm 8.5ft 11s 9s 9 11 mph 1024.6mb 56f 56f
9:50pm 8.5ft 12s 9s 9 11 mph 1024.7mb 56f 56f
8:50pm 9ft 10s 9s 9 11 mph 1024.5mb 56f 56f
7:50pm 9.5ft 11s 9s 7 9 mph 1024.2mb 56f 55f
6:50pm 10.5ft 11s 9s 11 13 mph 1023.9mb 56f 55f
5:50pm 9ft 12s 9s 7 11 mph 1024.1mb 56f 56f
4:50pm 10.5ft 13s 10s 7 9 mph 1023.9mb 57f 57f
3:50pm 9ft 11s 9s 4 7 mph 1024.3mb 57f 57f
2:50pm 9ft 13s 10s 7 9 mph 1024.5mb 57f 57f
1:50pm 8.5ft 11s 9s 7 9 mph 1024.7mb 57f 58f
12:50pm 9ft 13s 10s 4 7 mph 1025.3mb 57f 58f
11:50am 9ft 13s 9s 2 4 mph 1025.9mb 57f 58f
10:50am 9ft 14s 9s 4
mph
1026.4mb 57f 58f
9:50am 8ft 13s 9s 4
mph
1026.4mb 57f 58f